Corpus Christi, TX

3:14 AM CDT on August 31, 2014 (GMT -0500)
Corpus Christi Naval Air Station-Truax | Change Station
CLOSE
Current Station
Airport
Location: Corpus Christi NAS,
Elevation: 20 ft
Nearby Weather Stations

Elev 20 ft 27.69 °N, 97.29 °W | Updated 18 minutes ago

Scattered Clouds
Scattered Clouds
83 °F
Feels Like 94 °F
N
9
Wind Variable Wind from SSE

Today
High -- | Low -- °F
--% Chance of Precip.
Yesterday
High -- | Low -- °F
Precip. -- in
7:07 AM 7:50 PM
Waxing Crescent, 29% visible
Pressure 29.92 in
Visibility 10.0 miles
Clouds Few 1800 ft
Scattered Clouds 8500 ft
Heat Index 94 °F
Dew Point 79 °F
Humidity 88%
Rainfall 0.00 in
Snow Depth Not available.
UV 0 out of 12
Pollen 7.00 out of 12
Ozone Good
Flu Activity Not available.
METAR KNGP 310756Z AUTO 16008KT 10SM FEW018 SCT085 28/26 A2992 RMK AO2 SLP132 T02830261 $

More Conditions Fewer Conditions

Pressure 29.92 in
Visibility 10.0 miles
Clouds Few 1800 ft
Scattered Clouds 8500 ft
Heat Index 94 °F
Dew Point 79 °F
Humidity 88%
Rainfall 0.00 in
Snow Depth Not available.
UV 0 out of 12
Pollen 7.00 out of 12
Ozone Good
Flu Activity Not available.
METAR KNGP 310756Z AUTO 16008KT 10SM FEW018 SCT085 28/26 A2992 RMK AO2 SLP132 T02830261 $

More Conditions Fewer Conditions

10-Day Weather Forecast

Almanac

Astronomy

Aug. 31, 2014 Rise Set
Actual Time 7:07 AM CDT 7:50 PM CDT
Civil Twilight 6:43 AM CDT 8:14 PM CDT
Nautical Twilight 6:15 AM CDT 8:42 PM CDT
Astronomical Twilight 5:47 AM CDT 9:11 PM CDT
Moon 12:23 PM CDT 11:39 PM CDT
Length of Visible Light 13h 30m
Length of Day
12h 43m
Tomorrow will be 1m 34s shorter.
Waxing Crescent, 29% of the Moon is Illuminated
Today
Waxing Crescent
Sep 2
First Quarter
Sep 8
Full
Sep 15
Last Quarter
Sep 24
New

Today's Extremes

State Highs State Lows

Community

WunderPhotos

Upload Photos

1,748,820 photos uploaded!

Nearby

Air Quality

  Air Quality AQ Index Pollutant
Yesterday Good
OZONE
Current Good
OZONE
Sunday Good
OZONE
Sunday Good
PM10
Monday Good
OZONE
Monday Good
PM10
Tuesday Good
OZONE
Tuesday Good
PM10

Snow Depth

Station Depth Elevation
No new snow has been reported.

Earthquake Activity

City Distance Mag. Time & Date
No recent earthquake activity has been reported nearby.
Minimum magnitude displayed is 2.5.

Coastal Water Temperatures

Place Temperature
Baffin Bay Point of Rocks, TX 80.1 °F
South Bird Island, TX 82.9 °F
Packery Channel, TX 82.9 °F
Port Aransas, TX 84.0 °F
Malaquite Beach (Corpus Christi), TX 82.9 °F

Nearby Weather Stations